createdAt,value
2019-04-06T00:01:11.232Z,99276.50
2019-04-06T00:06:15.652Z,99277.87
2019-04-06T00:11:19.980Z,99284.48
2019-04-06T00:16:24.359Z,99284.70
2019-04-06T00:21:28.822Z,99287.03
2019-04-06T00:26:33.176Z,99292.98
2019-04-06T00:31:39.258Z,99295.73
2019-04-06T00:36:43.720Z,99285.66
2019-04-06T00:41:48.111Z,99285.49
2019-04-06T00:46:52.446Z,99287.72
2019-04-06T00:51:57.269Z,99283.66
2019-04-06T00:57:01.991Z,99293.41
2019-04-06T01:02:06.809Z,99291.75
2019-04-06T01:07:11.184Z,99287.69
2019-04-06T01:12:15.596Z,99299.77
2019-04-06T01:17:20.038Z,99301.09
2019-04-06T01:22:24.394Z,99298.17
2019-04-06T01:27:28.777Z,99306.78
2019-04-06T01:32:33.167Z,99303.22
2019-04-06T01:37:37.592Z,99297.44
2019-04-06T01:42:42.027Z,99302.73
2019-04-06T01:47:46.376Z,99302.50
2019-04-06T01:52:50.758Z,99303.75
2019-04-06T01:57:55.107Z,99304.05
2019-04-06T02:02:59.478Z,99300.62
2019-04-06T02:08:03.836Z,99294.66
2019-04-06T02:13:08.186Z,99292.22
2019-04-06T02:18:12.657Z,99290.55
2019-04-06T02:23:17.003Z,99290.84
2019-04-06T02:28:21.352Z,99295.22
2019-04-06T02:33:27.370Z,99298.82
2019-04-06T02:38:33.359Z,99298.22
2019-04-06T02:43:39.610Z,99304.77
2019-04-06T02:48:43.983Z,99307.37
2019-04-06T02:53:48.517Z,99306.23
2019-04-06T02:58:52.851Z,99308.13
2019-04-06T03:03:57.255Z,99315.42
2019-04-06T03:09:01.693Z,99315.90
2019-04-06T03:14:07.320Z,99309.08
2019-04-06T03:19:11.796Z,99308.52
2019-04-06T03:24:16.232Z,99311.59
2019-04-06T03:29:20.601Z,99307.61
2019-04-06T03:34:25.052Z,99316.27
2019-04-06T03:39:29.375Z,99315.80
2019-04-06T03:44:33.730Z,99316.72
2019-04-06T03:49:38.088Z,99321.89
2019-04-06T03:54:42.447Z,99316.20
2019-04-06T03:59:46.905Z,99317.52
2019-04-06T04:04:51.278Z,99320.45
2019-04-06T04:09:55.624Z,99324.19
2019-04-06T04:15:00.005Z,99324.19
2019-04-06T04:20:06.681Z,99326.91
2019-04-06T04:25:11.095Z,99321.36
2019-04-06T04:30:25.270Z,99322.03
2019-04-06T04:35:21.827Z,99322.27
2019-04-06T04:40:26.242Z,99319.78
2019-04-06T04:45:30.592Z,99323.95
2019-04-06T04:50:34.979Z,99336.53
2019-04-06T04:55:39.307Z,99332.93
2019-04-06T05:00:43.721Z,99334.38
2019-04-06T05:05:48.066Z,99336.33
2019-04-06T05:10:52.445Z,99336.42
2019-04-06T05:16:13.412Z,99344.96
2019-04-06T05:21:17.749Z,99341.43
2019-04-06T05:26:22.172Z,99344.25
2019-04-06T05:31:26.544Z,99351.50
2019-04-06T05:36:30.893Z,99355.32
2019-04-06T05:41:35.285Z,99355.71
2019-04-06T05:46:39.645Z,99357.40
2019-04-06T05:51:44.011Z,99365.84
2019-04-06T05:56:48.421Z,99367.84
2019-04-06T06:01:52.787Z,99365.94
2019-04-06T06:06:57.235Z,99367.06
2019-04-06T06:12:01.619Z,99381.61
2019-04-06T06:17:05.973Z,99378.10
2019-04-06T06:22:10.423Z,99376.50
2019-04-06T06:27:14.811Z,99388.80
2019-04-06T06:32:20.459Z,99385.92
2019-04-06T06:37:24.886Z,99386.84
2019-04-06T06:42:29.496Z,99379.24
2019-04-06T06:47:33.915Z,99375.67
2019-04-06T06:52:38.297Z,99378.44
2019-04-06T06:57:42.810Z,99377.22
2019-04-06T07:02:47.273Z,99375.59
2019-04-06T07:07:51.827Z,99374.22
2019-04-06T07:12:56.214Z,99375.57
2019-04-06T07:18:01.673Z,99371.94
2019-04-06T07:23:07.193Z,99361.35
2019-04-06T07:28:11.560Z,99367.84
2019-04-06T07:33:15.911Z,99361.73
2019-04-06T07:38:20.370Z,99362.31
2019-04-06T07:43:24.747Z,99355.55
2019-04-06T07:48:29.259Z,99361.28
2019-04-06T07:53:33.786Z,99355.97
2019-04-06T07:58:49.514Z,99349.16
2019-04-06T08:03:52.283Z,99349.41
2019-04-06T08:08:56.832Z,99344.42
2019-04-06T08:14:01.537Z,99339.22
2019-04-06T08:19:05.889Z,99333.55
2019-04-06T08:24:15.139Z,99337.94
2019-04-06T08:29:22.256Z,99333.42
2019-04-06T08:34:29.540Z,99325.16
2019-04-06T08:39:34.102Z,99316.83
2019-04-06T08:44:38.598Z,99307.84
2019-04-06T08:49:43.087Z,99308.36
2019-04-06T08:54:47.440Z,99309.36
2019-04-06T08:59:51.866Z,99302.34
2019-04-06T09:04:56.355Z,99299.52
2019-04-06T09:10:00.926Z,99291.23
2019-04-06T09:15:08.155Z,99289.74
2019-04-06T09:20:12.558Z,99284.55
2019-04-06T09:25:17.075Z,99270.59
2019-04-06T09:30:21.455Z,99273.91
2019-04-06T09:35:25.839Z,99261.23
2019-04-06T09:40:30.329Z,99258.20
2019-04-06T09:45:48.290Z,99253.44
2019-04-06T09:50:54.359Z,99247.85
2019-04-06T09:56:15.432Z,99239.56
2019-04-06T10:01:39.143Z,99237.11
2019-04-06T10:06:49.223Z,99237.20
2019-04-06T10:12:00.223Z,99233.48
2019-04-06T10:17:22.987Z,99234.04
2019-04-06T10:22:43.509Z,99222.78
2019-04-06T10:27:49.528Z,99230.72
2019-04-06T10:33:04.409Z,99222.75
2019-04-06T10:38:19.705Z,99224.08
2019-04-06T10:43:25.819Z,99214.84
2019-04-06T10:48:33.580Z,99208.47
2019-04-06T10:53:40.728Z,99203.02
2019-04-06T10:59:05.117Z,99201.27
2019-04-06T11:04:13.917Z,99191.48
2019-04-06T11:09:25.790Z,99184.17
2019-04-06T11:14:34.698Z,99182.53
2019-04-06T11:19:47.366Z,99186.94
2019-04-06T11:24:59.352Z,99181.48
2019-04-06T11:30:15.445Z,99181.84
2019-04-06T11:35:24.756Z,99173.69
2019-04-06T11:40:36.791Z,99167.27
2019-04-06T11:45:55.121Z,99162.04
2019-04-06T11:51:01.134Z,99158.23
2019-04-06T11:56:22.261Z,99156.94
2019-04-06T12:01:28.251Z,99148.83
2019-04-06T12:06:43.146Z,99156.79
2019-04-06T12:11:49.363Z,99151.05
2019-04-06T12:16:58.195Z,99138.45
2019-04-06T12:22:16.527Z,99133.63
2019-04-06T12:27:41.151Z,99128.02
2019-04-06T12:32:47.151Z,99127.48
2019-04-06T12:37:59.299Z,99117.52
2019-04-06T12:43:11.051Z,99115.98
2019-04-06T12:48:28.990Z,99115.91
2019-04-06T12:53:47.499Z,99124.09
2019-04-06T12:58:53.535Z,99121.98
2019-04-06T13:04:15.637Z,99113.15
2019-04-06T13:09:37.827Z,99116.97
2019-04-06T13:14:43.825Z,99099.47
2019-04-06T13:19:55.562Z,99103.77
2019-04-06T13:25:13.510Z,99104.45
2019-04-06T13:30:34.488Z,99100.98
2019-04-06T13:35:43.117Z,99097.55
2019-04-06T13:41:04.317Z,99101.39
2019-04-06T13:46:28.478Z,99091.52
2019-04-06T13:51:40.431Z,99102.36
2019-04-06T13:56:52.031Z,99081.79
2019-04-06T14:01:58.452Z,99089.30
2019-04-06T14:07:10.566Z,99087.79
2019-04-06T14:12:32.895Z,99091.14
2019-04-06T14:17:50.694Z,99087.03
2019-04-06T14:22:59.682Z,99091.07
2019-04-06T14:28:05.708Z,99099.52
2019-04-06T14:33:17.662Z,99109.20
2019-04-06T14:38:39.047Z,99108.33
2019-04-06T14:43:51.326Z,99105.94
2019-04-06T14:49:27.902Z,99111.09
2019-04-06T14:54:21.466Z,99113.89
2019-04-06T14:59:30.448Z,99112.38
2019-04-06T15:04:54.512Z,99110.20
2019-04-06T15:10:00.883Z,99114.53
2019-04-06T15:15:17.221Z,99116.16
2019-04-06T15:20:26.242Z,99116.86
2019-04-06T15:25:41.187Z,99119.89
2019-04-06T15:30:59.186Z,99117.73
2019-04-06T15:36:07.644Z,99121.83
2019-04-06T15:41:28.924Z,99123.99
2019-04-06T15:46:40.973Z,99129.41
2019-04-06T15:52:11.084Z,99131.42
2019-04-06T15:57:17.729Z,99133.11
2019-04-06T16:02:24.908Z,99136.48
2019-04-06T16:07:33.501Z,99137.11
2019-04-06T16:12:47.755Z,99142.56
2019-04-06T16:17:56.389Z,99136.46
2019-04-06T16:23:08.211Z,99142.47
2019-04-06T16:28:14.854Z,99157.91
2019-04-06T16:33:20.842Z,99166.89
2019-04-06T16:38:42.209Z,99181.77
2019-04-06T16:44:00.584Z,99194.48
2019-04-06T16:49:16.272Z,99203.28
2019-04-06T16:54:38.424Z,99207.05
2019-04-06T16:59:56.903Z,99220.82
2019-04-06T17:05:02.884Z,99218.63
2019-04-06T17:10:15.023Z,99232.80
2019-04-06T17:15:30.101Z,99232.24
2019-04-06T17:20:38.997Z,99223.16
2019-04-06T17:25:45.097Z,99222.41
2019-04-06T17:31:03.514Z,99233.44
2019-04-06T17:36:09.533Z,99228.09
2019-04-06T17:41:32.926Z,99230.33
2019-04-06T17:46:57.281Z,99243.73
2019-04-06T17:52:03.505Z,99249.55
2019-04-06T17:57:18.677Z,99250.66
2019-04-06T18:02:24.826Z,99258.94
2019-04-06T18:07:31.101Z,99255.72
2019-04-06T18:12:49.639Z,99268.86
2019-04-06T18:18:00.799Z,99275.66
2019-04-06T18:23:05.274Z,99278.64
2019-04-06T18:28:12.356Z,99288.02
2019-04-06T18:33:18.357Z,99291.84
2019-04-06T18:38:36.629Z,99292.94
2019-04-06T18:43:41.040Z,99294.97
2019-04-06T18:48:45.436Z,99303.22
2019-04-06T18:53:50.334Z,99309.21
2019-04-06T18:58:54.795Z,99311.50
2019-04-06T19:03:59.211Z,99309.87
2019-04-06T19:09:05.729Z,99314.66
2019-04-06T19:14:10.171Z,99317.94
2019-04-06T19:19:14.547Z,99316.94
2019-04-06T19:24:19.166Z,99317.75
2019-04-06T19:29:23.947Z,99322.56
2019-04-06T19:34:28.416Z,99318.06
2019-04-06T19:39:32.842Z,99316.84
2019-04-06T19:44:37.284Z,99317.84
2019-04-06T19:49:41.684Z,99321.73
2019-04-06T19:54:46.108Z,99317.49
2019-04-06T19:59:50.492Z,99319.48
2019-04-06T20:04:54.868Z,99314.37
2019-04-06T20:09:59.254Z,99313.88
2019-04-06T20:15:04.847Z,99313.96
2019-04-06T20:20:09.556Z,99316.15
2019-04-06T20:25:14.875Z,99309.98
2019-04-06T20:30:19.536Z,99310.76
2019-04-06T20:35:23.932Z,99310.84
2019-04-06T20:40:28.674Z,99303.58
2019-04-06T20:45:33.589Z,99298.55
2019-04-06T20:50:38.546Z,99294.27
2019-04-06T20:55:43.613Z,99287.80
2019-04-06T21:00:49.067Z,99290.87
2019-04-06T21:05:53.530Z,99293.47
2019-04-06T21:10:57.943Z,99293.97
2019-04-06T21:16:02.326Z,99290.55
2019-04-06T21:21:07.833Z,99290.81
2019-04-06T21:26:12.539Z,99295.96
2019-04-06T21:31:17.730Z,99290.38
2019-04-06T21:36:22.136Z,99293.05
2019-04-06T21:41:27.841Z,99284.91
2019-04-06T21:46:32.704Z,99289.61
2019-04-06T21:51:37.087Z,99294.82
2019-04-06T21:56:41.456Z,99289.98
2019-04-06T22:01:46.503Z,99294.05
2019-04-06T22:06:51.636Z,99295.44
2019-04-06T22:11:56.082Z,99291.63
2019-04-06T22:17:00.456Z,99292.44
2019-04-06T22:22:05.312Z,99294.30
2019-04-06T22:27:09.730Z,99285.88
2019-04-06T22:32:14.251Z,99280.14
2019-04-06T22:37:18.637Z,99279.04
2019-04-06T22:42:22.987Z,99274.98
2019-04-06T22:47:27.388Z,99275.27
2019-04-06T22:52:31.749Z,99274.33
2019-04-06T22:57:36.177Z,99281.34
2019-04-06T23:02:42.756Z,99275.27
2019-04-06T23:07:47.172Z,99275.72
2019-04-06T23:12:51.516Z,99276.42
2019-04-06T23:17:55.903Z,99269.36
2019-04-06T23:23:00.553Z,99279.00
2019-04-06T23:28:05.103Z,99270.59
2019-04-06T23:33:09.545Z,99268.59
2019-04-06T23:38:13.984Z,99265.02
2019-04-06T23:43:18.699Z,99264.12
2019-04-06T23:48:24.748Z,99265.80
2019-04-06T23:53:29.373Z,99260.36
2019-04-06T23:58:33.828Z,99265.55
